ADDS METAR Data INFO
IDs: Format: Raw Decoded Include TAF

Data at: 1048 UTC 19 Oct 2017

KHRI 190953Z AUTO 00000KT 10SM CLR 08/04 A2963 RMK AO2 SLP032 T00830039
KHRI 190853Z AUTO 15006KT 10SM CLR 10/05 A2964 RMK AO2 SLP036 T01000050 58015
KHRI 190753Z AUTO 13006KT 10SM CLR 09/06 A2966 RMK AO2 SLP042 T00940061 401610078
KHRI 190653Z AUTO 11004KT 10SM CLR 08/07 A2967 RMK AO2 SLP048 T00830072
KHRI 190553Z AUTO 18004KT 10SM CLR 11/08 A2969 RMK AO2 SLP053 T01110078 10150 20083 58014
KHRI 190453Z AUTO 17003KT 10SM CLR 10/08 A2970 RMK AO2 SLP055 T01000078
KHRI 190353Z AUTO 00000KT 10SM CLR 10/08 A2972 RMK AO2 SLP064 T01000083
KHRI 190253Z AUTO 20004KT 10SM CLR 10/08 A2973 RMK AO2 SLP067 T01000083 56016
KHRI 190153Z AUTO 30005KT 10SM CLR 13/10 A2974 RMK AO2 SLP070 T01280100
KHRI 190053Z AUTO 00000KT 10SM CLR 13/10 A2975 RMK AO2 SLP073 T01330100
KHRI 182353Z AUTO 00000KT 10SM CLR 16/10 A2978 RMK AO2 SLP082 T01560100 10161 20122 58027
KHRI 182253Z AUTO 00000KT 10SM CLR 16/09 A2981 RMK AO2 SLP092 T01610094
KHRI 182153Z AUTO 00000KT 10SM CLR 16/09 A2983 RMK AO2 SLP101 T01560089
KHRI 182053Z AUTO 35003KT 10SM CLR 15/08 A2986 RMK AO2 SLP110 T01500083 58029
KHRI 181953Z AUTO 00000KT 10SM CLR 14/08 A2989 RMK AO2 SLP121 T01440083
KHRI 181853Z AUTO 00000KT 10SM SCT120 13/08 A2992 RMK AO2 SLP130 T01330083
KHRI 181753Z AUTO 36003KT 10SM CLR 12/09 A2995 RMK AO2 SLP139 60000 T01220089 10122 20094 58014
KHRI 181735Z AUTO 35003KT 10SM CLR 12/08 A2995 RMK AO2 T01220083
KHRI 181720Z AUTO 00000KT 1 3/4SM HZ CLR 12/08 A2996 RMK AO2 T01220083
KHRI 181653Z AUTO 00000KT 10SM CLR 11/08 A2997 RMK AO2 RAE1554 SLP147 P0000 T01110083
KHRI 181553Z AUTO 00000KT 10SM -RA FEW110 11/08 A2998 RMK AO2 RAB41 SLP150 P0000 T01060083
KHRI 181453Z AUTO 02004KT 10SM SCT075 10/08 A2999 RMK AO2 SLP154 T01000078 58011
KHRI 181353Z AUTO 18003KT 10SM BKN065 11/08 A3000 RMK AO2 SLP157 T01060078
KHRI 181253Z AUTO 18003KT 10SM SCT080 OVC095 09/07 A3002 RMK AO2 SLP164 T00940072 $
KHRI 181153Z AUTO 16003KT 10SM CLR 09/07 A3002 RMK AO2 SLP163 T00940072 10128 20089 58012 $
KHRI 181053Z AUTO 13004KT 10SM BKN050 10/07 A3003 RMK AO2 SLP165 T01000072 $
KHRI 180953Z AUTO 06003KT 10SM CLR 09/07 A3005 RMK AO2 SLP174 T00940072 $
KHRI 180853Z AUTO 00000KT 10SM CLR 10/07 A3005 RMK AO2 SLP175 T01000067 58018 $
KHRI 180753Z AUTO 28004KT 10SM FEW070 11/07 A3008 RMK AO2 SLP181 T01110067 402280028 $
KHRI 180653Z AUTO 20008KT 10SM FEW065 12/07 A3009 RMK AO2 SLP186 T01220072 $
KHRI 180553Z AUTO 22008KT 10SM CLR 12/07 A3011 RMK AO2 SLP193 T01220072 10189 20122 52013 $
KHRI 180453Z AUTO 22008KT 10SM CLR 13/08 A3010 RMK AO2 SLP190 T01330078 $
KHRI 180353Z AUTO 22010KT 10SM CLR 13/08 A3008 RMK AO2 SLP187 T01330078 $
KHRI 180253Z AUTO 21014KT 10SM CLR 13/07 A3007 RMK AO2 SLP183 T01330072 53020 $
KHRI 180153Z AUTO 24011KT 10SM SCT065 16/07 A3006 RMK AO2 PK WND 26029/0103 PRESRR SLP178 T01610072 $
KHRI 180053Z AUTO 25019G25KT 10SM BKN060 BKN090 17/08 A3002 RMK AO2 SLP165 T01720078 $
KHRI 172353Z AUTO 26016G28KT 10SM FEW080 19/08 A3001 RMK AO2 PK WND 26033/2256 PRESRR SLP162 T01890078 10228 20167 53023 $
KHRI 172253Z AUTO 26022G29KT 10SM FEW090 20/08 A2998 RMK AO2 PK WND 27030/2154 SLP150 T02000083 $